sensor_id;sensor_type;location;lat;lon;timestamp;temperature;humidity
41838;DHT22;27511;52.042;5.178;2022-12-07T00:01:20;7.60;99.90
41838;DHT22;27511;52.042;5.178;2022-12-07T00:03:47;7.60;99.90
41838;DHT22;27511;52.042;5.178;2022-12-07T00:06:14;7.60;99.90
41838;DHT22;27511;52.042;5.178;2022-12-07T00:08:40;7.40;99.90
41838;DHT22;27511;52.042;5.178;2022-12-07T00:11:08;7.30;99.90
41838;DHT22;27511;52.042;5.178;2022-12-07T00:13:35;7.30;99.90
41838;DHT22;27511;52.042;5.178;2022-12-07T00:16:10;7.30;99.90
41838;DHT22;27511;52.042;5.178;2022-12-07T00:18:37;7.40;99.90
41838;DHT22;27511;52.042;5.178;2022-12-07T00:21:09;7.60;99.90
41838;DHT22;27511;52.042;5.178;2022-12-07T00:23:35;7.60;99.90
41838;DHT22;27511;52.042;5.178;2022-12-07T00:26:09;7.80;99.90
41838;DHT22;27511;52.042;5.178;2022-12-07T00:28:35;7.80;99.90
41838;DHT22;27511;52.042;5.178;2022-12-07T00:31:20;7.80;99.90
41838;DHT22;27511;52.042;5.178;2022-12-07T00:33:47;7.80;99.90
41838;DHT22;27511;52.042;5.178;2022-12-07T00:36:17;7.90;99.90
41838;DHT22;27511;52.042;5.178;2022-12-07T00:38:43;7.70;99.90
41838;DHT22;27511;52.042;5.178;2022-12-07T00:41:14;7.70;99.90
41838;DHT22;27511;52.042;5.178;2022-12-07T00:43:41;7.80;99.90
41838;DHT22;27511;52.042;5.178;2022-12-07T00:46:07;7.90;99.90
41838;DHT22;27511;52.042;5.178;2022-12-07T00:48:33;7.90;99.90
41838;DHT22;27511;52.042;5.178;2022-12-07T00:50:59;7.80;99.90
41838;DHT22;27511;52.042;5.178;2022-12-07T00:53:25;7.80;99.90
41838;DHT22;27511;52.042;5.178;2022-12-07T00:55:51;7.70;99.90
41838;DHT22;27511;52.042;5.178;2022-12-07T00:58:18;7.90;99.90
41838;DHT22;27511;52.042;5.178;2022-12-07T01:00:43;7.90;99.90
41838;DHT22;27511;52.042;5.178;2022-12-07T01:03:11;7.70;99.90
41838;DHT22;27511;52.042;5.178;2022-12-07T01:05:37;7.60;99.90
41838;DHT22;27511;52.042;5.178;2022-12-07T01:08:03;7.50;99.90
41838;DHT22;27511;52.042;5.178;2022-12-07T01:10:29;7.50;99.90
41838;DHT22;27511;52.042;5.178;2022-12-07T01:12:56;7.40;99.90
41838;DHT22;27511;52.042;5.178;2022-12-07T01:15:22;7.40;99.90
41838;DHT22;27511;52.042;5.178;2022-12-07T01:17:48;7.30;99.90
41838;DHT22;27511;52.042;5.178;2022-12-07T01:20:13;7.30;99.90
41838;DHT22;27511;52.042;5.178;2022-12-07T01:22:41;7.30;99.90
41838;DHT22;27511;52.042;5.178;2022-12-07T01:25:08;7.20;99.90
41838;DHT22;27511;52.042;5.178;2022-12-07T01:27:34;7.20;99.90
41838;DHT22;27511;52.042;5.178;2022-12-07T01:30:00;7.20;99.90
41838;DHT22;27511;52.042;5.178;2022-12-07T01:32:27;7.20;99.90
41838;DHT22;27511;52.042;5.178;2022-12-07T01:34:53;7.10;99.90
41838;DHT22;27511;52.042;5.178;2022-12-07T01:37:18;7.10;99.90
41838;DHT22;27511;52.042;5.178;2022-12-07T01:39:44;7.20;99.90
41838;DHT22;27511;52.042;5.178;2022-12-07T01:42:10;7.20;99.90
41838;DHT22;27511;52.042;5.178;2022-12-07T01:47:57;7.20;99.90
41838;DHT22;27511;52.042;5.178;2022-12-07T01:50:26;7.20;99.90
41838;DHT22;27511;52.042;5.178;2022-12-07T01:52:54;7.20;99.90
41838;DHT22;27511;52.042;5.178;2022-12-07T01:55:21;7.20;99.90
41838;DHT22;27511;52.042;5.178;2022-12-07T01:57:52;7.10;99.90
41838;DHT22;27511;52.042;5.178;2022-12-07T02:00:19;7.10;99.90
41838;DHT22;27511;52.042;5.178;2022-12-07T02:02:48;7.00;99.90
41838;DHT22;27511;52.042;5.178;2022-12-07T02:05:17;7.00;99.90
41838;DHT22;27511;52.042;5.178;2022-12-07T02:07:44;7.00;99.90
41838;DHT22;27511;52.042;5.178;2022-12-07T02:10:19;6.90;99.90
41838;DHT22;27511;52.042;5.178;2022-12-07T02:12:48;6.80;99.90
41838;DHT22;27511;52.042;5.178;2022-12-07T02:15:16;6.70;99.90
41838;DHT22;27511;52.042;5.178;2022-12-07T02:18:04;6.60;99.90
41838;DHT22;27511;52.042;5.178;2022-12-07T02:20:55;6.60;99.90
41838;DHT22;27511;52.042;5.178;2022-12-07T02:26:40;6.70;99.90
41838;DHT22;27511;52.042;5.178;2022-12-07T02:29:14;6.70;99.90
41838;DHT22;27511;52.042;5.178;2022-12-07T02:32:02;6.80;99.90
41838;DHT22;27511;52.042;5.178;2022-12-07T02:34:53;6.90;99.90
41838;DHT22;27511;52.042;5.178;2022-12-07T02:40:20;7.00;99.90
41838;DHT22;27511;52.042;5.178;2022-12-07T02:42:50;7.10;99.90
41838;DHT22;27511;52.042;5.178;2022-12-07T02:45:21;7.20;99.90
41838;DHT22;27511;52.042;5.178;2022-12-07T02:47:51;7.20;99.90
41838;DHT22;27511;52.042;5.178;2022-12-07T02:50:20;7.10;99.90
41838;DHT22;27511;52.042;5.178;2022-12-07T02:52:46;7.30;99.90
41838;DHT22;27511;52.042;5.178;2022-12-07T02:55:13;7.30;99.90
41838;DHT22;27511;52.042;5.178;2022-12-07T02:58:08;7.30;99.90
41838;DHT22;27511;52.042;5.178;2022-12-07T03:00:49;7.30;99.90
41838;DHT22;27511;52.042;5.178;2022-12-07T03:03:17;7.30;99.90
41838;DHT22;27511;52.042;5.178;2022-12-07T03:05:56;7.30;99.90
41838;DHT22;27511;52.042;5.178;2022-12-07T03:11:40;7.40;99.90
41838;DHT22;27511;52.042;5.178;2022-12-07T03:14:28;7.40;99.90
41838;DHT22;27511;52.042;5.178;2022-12-07T03:17:24;7.40;99.90
41838;DHT22;27511;52.042;5.178;2022-12-07T03:19:53;7.30;99.90
41838;DHT22;27511;52.042;5.178;2022-12-07T03:22:22;7.10;99.90
41838;DHT22;27511;52.042;5.178;2022-12-07T03:24:52;7.10;99.90
41838;DHT22;27511;52.042;5.178;2022-12-07T03:27:23;7.00;99.90
41838;DHT22;27511;52.042;5.178;2022-12-07T03:30:00;7.00;99.90
41838;DHT22;27511;52.042;5.178;2022-12-07T03:35:19;7.00;99.90
41838;DHT22;27511;52.042;5.178;2022-12-07T03:37:53;7.00;99.90
41838;DHT22;27511;52.042;5.178;2022-12-07T03:40:33;7.00;99.90
41838;DHT22;27511;52.042;5.178;2022-12-07T03:43:01;7.00;99.90
41838;DHT22;27511;52.042;5.178;2022-12-07T03:45:41;7.00;99.90
41838;DHT22;27511;52.042;5.178;2022-12-07T03:48:37;7.00;99.90
41838;DHT22;27511;52.042;5.178;2022-12-07T03:54:05;6.90;99.90
41838;DHT22;27511;52.042;5.178;2022-12-07T03:56:33;6.80;99.90
41838;DHT22;27511;52.042;5.178;2022-12-07T03:58:59;6.90;99.90
41838;DHT22;27511;52.042;5.178;2022-12-07T04:01:25;6.90;99.90
41838;DHT22;27511;52.042;5.178;2022-12-07T04:03:50;7.00;99.90
41838;DHT22;27511;52.042;5.178;2022-12-07T04:06:16;7.10;99.90
41838;DHT22;27511;52.042;5.178;2022-12-07T04:08:41;7.10;99.90
41838;DHT22;27511;52.042;5.178;2022-12-07T04:11:07;7.00;99.90
41838;DHT22;27511;52.042;5.178;2022-12-07T04:13:33;7.00;99.90
41838;DHT22;27511;52.042;5.178;2022-12-07T04:16:18;7.00;99.90
41838;DHT22;27511;52.042;5.178;2022-12-07T04:18:44;6.90;99.90
41838;DHT22;27511;52.042;5.178;2022-12-07T04:21:09;6.80;99.90
41838;DHT22;27511;52.042;5.178;2022-12-07T04:23:35;6.90;99.90
41838;DHT22;27511;52.042;5.178;2022-12-07T04:26:00;7.00;99.90
41838;DHT22;27511;52.042;5.178;2022-12-07T04:28:26;6.80;99.90
41838;DHT22;27511;52.042;5.178;2022-12-07T04:30:51;6.70;99.90
41838;DHT22;27511;52.042;5.178;2022-12-07T04:33:17;6.70;99.90
41838;DHT22;27511;52.042;5.178;2022-12-07T04:35:43;6.80;99.90
41838;DHT22;27511;52.042;5.178;2022-12-07T04:38:08;6.80;99.90
41838;DHT22;27511;52.042;5.178;2022-12-07T04:40:34;6.80;99.90
41838;DHT22;27511;52.042;5.178;2022-12-07T04:43:00;6.80;99.90
41838;DHT22;27511;52.042;5.178;2022-12-07T04:45:25;6.70;99.90
41838;DHT22;27511;52.042;5.178;2022-12-07T04:47:51;6.70;99.90
41838;DHT22;27511;52.042;5.178;2022-12-07T04:50:16;6.70;99.90
41838;DHT22;27511;52.042;5.178;2022-12-07T04:52:42;6.80;99.90
41838;DHT22;27511;52.042;5.178;2022-12-07T04:55:08;6.90;99.90
41838;DHT22;27511;52.042;5.178;2022-12-07T04:57:33;7.00;99.90
41838;DHT22;27511;52.042;5.178;2022-12-07T04:59:59;6.90;99.90
41838;DHT22;27511;52.042;5.178;2022-12-07T05:02:25;6.80;99.90
41838;DHT22;27511;52.042;5.178;2022-12-07T05:04:50;6.70;99.90
41838;DHT22;27511;52.042;5.178;2022-12-07T05:07:16;6.60;99.90
41838;DHT22;27511;52.042;5.178;2022-12-07T05:09:41;6.60;99.90
41838;DHT22;27511;52.042;5.178;2022-12-07T05:12:07;6.60;99.90
41838;DHT22;27511;52.042;5.178;2022-12-07T05:14:32;6.60;99.90
41838;DHT22;27511;52.042;5.178;2022-12-07T05:16:58;6.60;99.90
41838;DHT22;27511;52.042;5.178;2022-12-07T05:19:23;6.60;99.90
41838;DHT22;27511;52.042;5.178;2022-12-07T05:21:49;6.70;99.90
41838;DHT22;27511;52.042;5.178;2022-12-07T05:24:15;6.70;99.90
41838;DHT22;27511;52.042;5.178;2022-12-07T05:26:42;6.80;99.90
41838;DHT22;27511;52.042;5.178;2022-12-07T05:29:10;6.90;99.90
41838;DHT22;27511;52.042;5.178;2022-12-07T05:31:36;6.90;99.90
41838;DHT22;27511;52.042;5.178;2022-12-07T05:34:02;6.80;99.90
41838;DHT22;27511;52.042;5.178;2022-12-07T05:36:27;6.70;99.90
41838;DHT22;27511;52.042;5.178;2022-12-07T05:38:54;6.70;99.90
41838;DHT22;27511;52.042;5.178;2022-12-07T05:41:19;6.80;99.90
41838;DHT22;27511;52.042;5.178;2022-12-07T05:44:04;6.80;99.90
41838;DHT22;27511;52.042;5.178;2022-12-07T05:46:30;6.90;99.90
41838;DHT22;27511;52.042;5.178;2022-12-07T05:48:56;7.10;99.90
41838;DHT22;27511;52.042;5.178;2022-12-07T05:51:22;7.00;99.90
41838;DHT22;27511;52.042;5.178;2022-12-07T05:53:47;7.00;99.90
41838;DHT22;27511;52.042;5.178;2022-12-07T05:56:13;7.00;99.90
41838;DHT22;27511;52.042;5.178;2022-12-07T05:58:38;7.00;99.90
41838;DHT22;27511;52.042;5.178;2022-12-07T06:01:22;7.00;99.90
41838;DHT22;27511;52.042;5.178;2022-12-07T06:03:48;7.00;99.90
41838;DHT22;27511;52.042;5.178;2022-12-07T06:06:13;6.90;99.90
41838;DHT22;27511;52.042;5.178;2022-12-07T06:08:39;7.00;99.90
41838;DHT22;27511;52.042;5.178;2022-12-07T06:11:04;7.00;99.90
41838;DHT22;27511;52.042;5.178;2022-12-07T06:13:49;7.00;99.90
41838;DHT22;27511;52.042;5.178;2022-12-07T06:16:14;7.10;99.90
41838;DHT22;27511;52.042;5.178;2022-12-07T06:18:40;7.10;99.90
41838;DHT22;27511;52.042;5.178;2022-12-07T06:21:05;7.20;99.90
41838;DHT22;27511;52.042;5.178;2022-12-07T06:23:31;7.10;99.90
41838;DHT22;27511;52.042;5.178;2022-12-07T06:25:56;7.10;99.90
41838;DHT22;27511;52.042;5.178;2022-12-07T06:28:22;7.10;99.90
41838;DHT22;27511;52.042;5.178;2022-12-07T06:30:47;7.10;99.90
41838;DHT22;27511;52.042;5.178;2022-12-07T06:33:21;7.00;99.90
41838;DHT22;27511;52.042;5.178;2022-12-07T06:35:47;7.10;99.90
41838;DHT22;27511;52.042;5.178;2022-12-07T06:38:12;6.90;99.90
41838;DHT22;27511;52.042;5.178;2022-12-07T06:40:38;6.90;99.90
41838;DHT22;27511;52.042;5.178;2022-12-07T06:43:03;7.00;99.90
41838;DHT22;27511;52.042;5.178;2022-12-07T06:45:29;7.00;99.90
41838;DHT22;27511;52.042;5.178;2022-12-07T06:47:54;7.00;99.90
41838;DHT22;27511;52.042;5.178;2022-12-07T06:50:20;7.00;99.90
41838;DHT22;27511;52.042;5.178;2022-12-07T06:52:46;7.00;99.90
41838;DHT22;27511;52.042;5.178;2022-12-07T06:55:11;7.00;99.90
41838;DHT22;27511;52.042;5.178;2022-12-07T06:57:37;7.10;99.90
41838;DHT22;27511;52.042;5.178;2022-12-07T07:00:03;7.00;99.90
41838;DHT22;27511;52.042;5.178;2022-12-07T07:02:29;7.00;99.90
41838;DHT22;27511;52.042;5.178;2022-12-07T07:04:54;6.80;99.90
41838;DHT22;27511;52.042;5.178;2022-12-07T07:07:20;7.00;99.90
41838;DHT22;27511;52.042;5.178;2022-12-07T07:09:45;7.10;99.90
41838;DHT22;27511;52.042;5.178;2022-12-07T07:12:11;7.10;99.90
41838;DHT22;27511;52.042;5.178;2022-12-07T07:14:36;7.10;99.90
41838;DHT22;27511;52.042;5.178;2022-12-07T07:17:02;6.90;99.90
41838;DHT22;27511;52.042;5.178;2022-12-07T07:19:27;6.90;99.90
41838;DHT22;27511;52.042;5.178;2022-12-07T07:21:53;6.80;99.90
41838;DHT22;27511;52.042;5.178;2022-12-07T07:24:18;6.80;99.90
41838;DHT22;27511;52.042;5.178;2022-12-07T07:26:44;6.80;99.90
41838;DHT22;27511;52.042;5.178;2022-12-07T07:29:09;6.90;99.90
41838;DHT22;27511;52.042;5.178;2022-12-07T07:31:35;6.80;99.90
41838;DHT22;27511;52.042;5.178;2022-12-07T07:34:02;6.70;99.90
41838;DHT22;27511;52.042;5.178;2022-12-07T07:36:28;6.80;99.90
41838;DHT22;27511;52.042;5.178;2022-12-07T07:38:53;6.70;99.90
41838;DHT22;27511;52.042;5.178;2022-12-07T07:41:19;6.70;99.90
41838;DHT22;27511;52.042;5.178;2022-12-07T07:43:44;6.60;99.90
41838;DHT22;27511;52.042;5.178;2022-12-07T07:46:10;6.70;99.90
41838;DHT22;27511;52.042;5.178;2022-12-07T07:48:35;6.70;99.90
41838;DHT22;27511;52.042;5.178;2022-12-07T07:51:05;6.90;99.90
41838;DHT22;27511;52.042;5.178;2022-12-07T07:53:31;6.80;99.90
41838;DHT22;27511;52.042;5.178;2022-12-07T07:55:56;6.80;99.90
41838;DHT22;27511;52.042;5.178;2022-12-07T07:58:22;6.70;99.90
41838;DHT22;27511;52.042;5.178;2022-12-07T08:00:48;6.70;99.90
41838;DHT22;27511;52.042;5.178;2022-12-07T08:03:13;6.70;99.90
41838;DHT22;27511;52.042;5.178;2022-12-07T08:05:39;6.70;99.90
41838;DHT22;27511;52.042;5.178;2022-12-07T08:08:04;6.90;99.90
41838;DHT22;27511;52.042;5.178;2022-12-07T08:10:30;6.90;99.90
41838;DHT22;27511;52.042;5.178;2022-12-07T08:12:57;6.80;99.90
41838;DHT22;27511;52.042;5.178;2022-12-07T08:15:46;6.80;99.90
41838;DHT22;27511;52.042;5.178;2022-12-07T08:18:13;6.70;99.90
41838;DHT22;27511;52.042;5.178;2022-12-07T08:20:40;6.70;99.90
41838;DHT22;27511;52.042;5.178;2022-12-07T08:23:06;6.70;99.90
41838;DHT22;27511;52.042;5.178;2022-12-07T08:25:33;6.70;99.90
41838;DHT22;27511;52.042;5.178;2022-12-07T08:27:58;6.80;99.90
41838;DHT22;27511;52.042;5.178;2022-12-07T08:30:27;6.70;99.90
41838;DHT22;27511;52.042;5.178;2022-12-07T08:32:53;6.70;99.90
41838;DHT22;27511;52.042;5.178;2022-12-07T08:35:19;6.70;99.90
41838;DHT22;27511;52.042;5.178;2022-12-07T08:37:44;6.80;99.90
41838;DHT22;27511;52.042;5.178;2022-12-07T08:40:11;7.10;99.90
41838;DHT22;27511;52.042;5.178;2022-12-07T08:42:41;7.20;99.90
41838;DHT22;27511;52.042;5.178;2022-12-07T08:45:12;7.20;99.90
41838;DHT22;27511;52.042;5.178;2022-12-07T08:47:55;7.30;99.90
41838;DHT22;27511;52.042;5.178;2022-12-07T08:50:22;7.40;99.90
41838;DHT22;27511;52.042;5.178;2022-12-07T08:52:53;7.50;99.90
41838;DHT22;27511;52.042;5.178;2022-12-07T08:55:20;7.50;99.90
41838;DHT22;27511;52.042;5.178;2022-12-07T08:57:46;7.50;99.90
41838;DHT22;27511;52.042;5.178;2022-12-07T09:00:12;7.50;99.90
41838;DHT22;27511;52.042;5.178;2022-12-07T09:02:38;7.60;99.90
41838;DHT22;27511;52.042;5.178;2022-12-07T09:05:04;7.70;99.90
41838;DHT22;27511;52.042;5.178;2022-12-07T09:07:30;7.70;99.90
41838;DHT22;27511;52.042;5.178;2022-12-07T09:09:57;7.80;99.90
41838;DHT22;27511;52.042;5.178;2022-12-07T09:12:22;7.80;99.90
41838;DHT22;27511;52.042;5.178;2022-12-07T09:14:48;7.90;99.90
41838;DHT22;27511;52.042;5.178;2022-12-07T09:17:20;7.90;99.90
41838;DHT22;27511;52.042;5.178;2022-12-07T09:19:45;7.90;99.90
41838;DHT22;27511;52.042;5.178;2022-12-07T09:22:11;7.90;99.90
41838;DHT22;27511;52.042;5.178;2022-12-07T09:24:37;7.90;99.90
41838;DHT22;27511;52.042;5.178;2022-12-07T09:27:02;7.70;99.90
41838;DHT22;27511;52.042;5.178;2022-12-07T09:29:28;7.80;99.90
41838;DHT22;27511;52.042;5.178;2022-12-07T09:31:53;7.80;99.90
41838;DHT22;27511;52.042;5.178;2022-12-07T09:34:19;7.90;99.90
41838;DHT22;27511;52.042;5.178;2022-12-07T09:36:45;8.00;99.90
41838;DHT22;27511;52.042;5.178;2022-12-07T09:39:11;8.10;99.90
41838;DHT22;27511;52.042;5.178;2022-12-07T09:41:42;8.30;99.90
41838;DHT22;27511;52.042;5.178;2022-12-07T09:44:16;8.30;99.90
41838;DHT22;27511;52.042;5.178;2022-12-07T09:46:43;8.30;99.90
41838;DHT22;27511;52.042;5.178;2022-12-07T09:49:31;8.40;99.90
41838;DHT22;27511;52.042;5.178;2022-12-07T09:52:19;8.40;99.90
41838;DHT22;27511;52.042;5.178;2022-12-07T09:54:47;8.50;99.90
41838;DHT22;27511;52.042;5.178;2022-12-07T09:57:14;8.50;99.90
41838;DHT22;27511;52.042;5.178;2022-12-07T09:59:40;8.50;99.90
41838;DHT22;27511;52.042;5.178;2022-12-07T10:02:36;8.50;99.90
41838;DHT22;27511;52.042;5.178;2022-12-07T10:05:05;8.60;99.90
41838;DHT22;27511;52.042;5.178;2022-12-07T10:07:30;8.60;99.90
41838;DHT22;27511;52.042;5.178;2022-12-07T10:09:56;8.50;99.90
41838;DHT22;27511;52.042;5.178;2022-12-07T10:12:21;8.60;99.90
41838;DHT22;27511;52.042;5.178;2022-12-07T10:15:02;8.60;99.90
41838;DHT22;27511;52.042;5.178;2022-12-07T10:17:41;8.60;99.90
41838;DHT22;27511;52.042;5.178;2022-12-07T10:20:17;8.60;99.90
41838;DHT22;27511;52.042;5.178;2022-12-07T10:23:02;8.70;99.90
41838;DHT22;27511;52.042;5.178;2022-12-07T10:25:30;8.80;99.90
41838;DHT22;27511;52.042;5.178;2022-12-07T10:28:17;8.80;99.90
41838;DHT22;27511;52.042;5.178;2022-12-07T10:33:48;8.80;99.90
41838;DHT22;27511;52.042;5.178;2022-12-07T10:36:35;8.80;99.90
41838;DHT22;27511;52.042;5.178;2022-12-07T10:39:17;8.80;99.90
41838;DHT22;27511;52.042;5.178;2022-12-07T10:41:57;8.80;99.90
41838;DHT22;27511;52.042;5.178;2022-12-07T10:44:28;8.80;99.90
41838;DHT22;27511;52.042;5.178;2022-12-07T10:46:58;8.90;99.90
41838;DHT22;27511;52.042;5.178;2022-12-07T10:52:26;9.00;99.90
41838;DHT22;27511;52.042;5.178;2022-12-07T10:55:19;9.10;99.90
41838;DHT22;27511;52.042;5.178;2022-12-07T10:57:59;9.10;99.90
41838;DHT22;27511;52.042;5.178;2022-12-07T11:15:22;9.00;99.90
41838;DHT22;27511;52.042;5.178;2022-12-07T11:35:04;9.20;99.90
41838;DHT22;27511;52.042;5.178;2022-12-07T11:37:34;9.30;99.90
41838;DHT22;27511;52.042;5.178;2022-12-07T11:40:17;9.30;99.90
41838;DHT22;27511;52.042;5.178;2022-12-07T11:43:26;9.30;99.90
41838;DHT22;27511;52.042;5.178;2022-12-07T11:46:11;9.30;99.90
41838;DHT22;27511;52.042;5.178;2022-12-07T11:48:47;9.40;99.90
41838;DHT22;27511;52.042;5.178;2022-12-07T11:51:19;9.50;99.90
41838;DHT22;27511;52.042;5.178;2022-12-07T11:53:55;9.50;99.90
41838;DHT22;27511;52.042;5.178;2022-12-07T11:56:26;9.60;99.90
41838;DHT22;27511;52.042;5.178;2022-12-07T11:59:08;9.80;99.90
41838;DHT22;27511;52.042;5.178;2022-12-07T12:01:53;9.80;99.90
41838;DHT22;27511;52.042;5.178;2022-12-07T12:07:00;9.70;99.90
41838;DHT22;27511;52.042;5.178;2022-12-07T12:09:41;9.70;99.90
41838;DHT22;27511;52.042;5.178;2022-12-07T12:17:42;9.50;99.90
41838;DHT22;27511;52.042;5.178;2022-12-07T12:23:12;9.50;99.90
41838;DHT22;27511;52.042;5.178;2022-12-07T12:25:48;9.60;99.90
41838;DHT22;27511;52.042;5.178;2022-12-07T12:28:32;9.40;99.90
41838;DHT22;27511;52.042;5.178;2022-12-07T12:33:35;9.50;99.90
41838;DHT22;27511;52.042;5.178;2022-12-07T12:36:18;9.50;99.90
41838;DHT22;27511;52.042;5.178;2022-12-07T12:46:51;9.70;99.90
41838;DHT22;27511;52.042;5.178;2022-12-07T12:51:57;9.50;99.90
41838;DHT22;27511;52.042;5.178;2022-12-07T12:54:25;9.50;99.90
41838;DHT22;27511;52.042;5.178;2022-12-07T13:15:37;9.80;99.90
41838;DHT22;27511;52.042;5.178;2022-12-07T13:20:52;9.80;99.90
41838;DHT22;27511;52.042;5.178;2022-12-07T13:23:20;9.90;99.90
41838;DHT22;27511;52.042;5.178;2022-12-07T13:28:41;9.90;99.90
41838;DHT22;27511;52.042;5.178;2022-12-07T13:33:38;10.00;99.90
41838;DHT22;27511;52.042;5.178;2022-12-07T13:36:04;10.00;99.90
41838;DHT22;27511;52.042;5.178;2022-12-07T13:38:34;10.20;99.90
41838;DHT22;27511;52.042;5.178;2022-12-07T13:41:13;10.30;99.90
41838;DHT22;27511;52.042;5.178;2022-12-07T13:44:15;10.40;99.90
41838;DHT22;27511;52.042;5.178;2022-12-07T13:49:26;10.20;99.90
41838;DHT22;27511;52.042;5.178;2022-12-07T13:51:53;10.00;99.90
41838;DHT22;27511;52.042;5.178;2022-12-07T13:54:20;9.80;99.90
41838;DHT22;27511;52.042;5.178;2022-12-07T13:56:51;9.40;99.90
41838;DHT22;27511;52.042;5.178;2022-12-07T13:59:26;9.10;99.90
41838;DHT22;27511;52.042;5.178;2022-12-07T14:01:53;8.90;99.90
41838;DHT22;27511;52.042;5.178;2022-12-07T14:04:32;8.80;99.90
41838;DHT22;27511;52.042;5.178;2022-12-07T14:06:59;8.70;99.90
41838;DHT22;27511;52.042;5.178;2022-12-07T14:09:28;8.50;99.90
41838;DHT22;27511;52.042;5.178;2022-12-07T14:11:56;8.50;99.90
41838;DHT22;27511;52.042;5.178;2022-12-07T14:14:30;8.60;99.90
41838;DHT22;27511;52.042;5.178;2022-12-07T14:17:09;8.60;99.90
41838;DHT22;27511;52.042;5.178;2022-12-07T14:19:47;8.40;99.90
41838;DHT22;27511;52.042;5.178;2022-12-07T14:22:39;8.40;99.90
41838;DHT22;27511;52.042;5.178;2022-12-07T14:25:25;8.50;99.90
41838;DHT22;27511;52.042;5.178;2022-12-07T14:28:01;8.60;99.90
41838;DHT22;27511;52.042;5.178;2022-12-07T14:30:30;8.60;99.90
41838;DHT22;27511;52.042;5.178;2022-12-07T14:32:59;8.60;99.90
41838;DHT22;27511;52.042;5.178;2022-12-07T14:35:26;8.60;99.90
41838;DHT22;27511;52.042;5.178;2022-12-07T14:37:52;8.70;99.90
41838;DHT22;27511;52.042;5.178;2022-12-07T14:40:27;8.80;99.90
41838;DHT22;27511;52.042;5.178;2022-12-07T14:43:12;8.80;99.90
41838;DHT22;27511;52.042;5.178;2022-12-07T14:45:39;8.80;99.90
41838;DHT22;27511;52.042;5.178;2022-12-07T14:48:07;8.90;99.90
41838;DHT22;27511;52.042;5.178;2022-12-07T14:50:37;8.90;99.90
41838;DHT22;27511;52.042;5.178;2022-12-07T14:53:13;8.90;99.90
41838;DHT22;27511;52.042;5.178;2022-12-07T14:55:39;8.90;99.90
41838;DHT22;27511;52.042;5.178;2022-12-07T14:58:15;9.00;99.90
41838;DHT22;27511;52.042;5.178;2022-12-07T15:00:47;9.00;99.90
41838;DHT22;27511;52.042;5.178;2022-12-07T15:03:13;8.90;99.90
41838;DHT22;27511;52.042;5.178;2022-12-07T15:05:40;8.90;99.90
41838;DHT22;27511;52.042;5.178;2022-12-07T15:08:06;8.80;99.90
41838;DHT22;27511;52.042;5.178;2022-12-07T15:10:33;8.80;99.90
41838;DHT22;27511;52.042;5.178;2022-12-07T15:13:00;8.80;99.90
41838;DHT22;27511;52.042;5.178;2022-12-07T15:15:45;8.80;99.90
41838;DHT22;27511;52.042;5.178;2022-12-07T15:18:11;8.80;99.90
41838;DHT22;27511;52.042;5.178;2022-12-07T15:20:36;8.80;99.90
41838;DHT22;27511;52.042;5.178;2022-12-07T15:23:02;8.80;99.90
41838;DHT22;27511;52.042;5.178;2022-12-07T15:25:28;9.00;99.90
41838;DHT22;27511;52.042;5.178;2022-12-07T15:27:53;8.90;99.90
41838;DHT22;27511;52.042;5.178;2022-12-07T15:30:19;8.90;99.90
41838;DHT22;27511;52.042;5.178;2022-12-07T15:32:49;8.90;99.90
41838;DHT22;27511;52.042;5.178;2022-12-07T15:35:14;8.80;99.90
41838;DHT22;27511;52.042;5.178;2022-12-07T15:37:40;8.90;99.90
41838;DHT22;27511;52.042;5.178;2022-12-07T15:40:06;9.00;99.90
41838;DHT22;27511;52.042;5.178;2022-12-07T15:42:32;8.80;99.90
41838;DHT22;27511;52.042;5.178;2022-12-07T15:44:58;8.70;99.90
41838;DHT22;27511;52.042;5.178;2022-12-07T15:47:30;8.60;99.90
41838;DHT22;27511;52.042;5.178;2022-12-07T15:49:56;8.80;99.90
41838;DHT22;27511;52.042;5.178;2022-12-07T15:52:21;8.60;99.90
41838;DHT22;27511;52.042;5.178;2022-12-07T15:54:47;8.70;99.90
41838;DHT22;27511;52.042;5.178;2022-12-07T15:57:13;8.60;99.90
41838;DHT22;27511;52.042;5.178;2022-12-07T15:59:38;8.70;99.90
41838;DHT22;27511;52.042;5.178;2022-12-07T16:02:04;8.70;99.90
41838;DHT22;27511;52.042;5.178;2022-12-07T16:04:30;8.70;99.90
41838;DHT22;27511;52.042;5.178;2022-12-07T16:06:55;8.60;99.90
41838;DHT22;27511;52.042;5.178;2022-12-07T16:09:21;8.50;99.90
41838;DHT22;27511;52.042;5.178;2022-12-07T16:11:47;8.40;99.90
41838;DHT22;27511;52.042;5.178;2022-12-07T16:14:13;8.30;99.90
41838;DHT22;27511;52.042;5.178;2022-12-07T16:16:39;8.30;99.90
41838;DHT22;27511;52.042;5.178;2022-12-07T16:19:05;8.30;99.90
41838;DHT22;27511;52.042;5.178;2022-12-07T16:21:31;8.40;99.90
41838;DHT22;27511;52.042;5.178;2022-12-07T16:23:59;8.30;99.90
41838;DHT22;27511;52.042;5.178;2022-12-07T16:26:25;8.30;99.90
41838;DHT22;27511;52.042;5.178;2022-12-07T16:28:52;8.20;99.90
41838;DHT22;27511;52.042;5.178;2022-12-07T16:31:20;8.20;99.90
41838;DHT22;27511;52.042;5.178;2022-12-07T16:33:46;8.20;99.90
41838;DHT22;27511;52.042;5.178;2022-12-07T16:36:13;8.20;99.90
41838;DHT22;27511;52.042;5.178;2022-12-07T16:38:42;8.30;99.90
41838;DHT22;27511;52.042;5.178;2022-12-07T16:41:07;8.40;99.90
41838;DHT22;27511;52.042;5.178;2022-12-07T16:43:36;8.30;99.90
41838;DHT22;27511;52.042;5.178;2022-12-07T16:46:08;8.40;99.90
41838;DHT22;27511;52.042;5.178;2022-12-07T16:48:38;8.40;99.90
41838;DHT22;27511;52.042;5.178;2022-12-07T16:51:06;8.40;99.90
41838;DHT22;27511;52.042;5.178;2022-12-07T16:53:32;8.30;99.90
41838;DHT22;27511;52.042;5.178;2022-12-07T16:55:58;8.40;99.90
41838;DHT22;27511;52.042;5.178;2022-12-07T16:58:23;8.30;99.90
41838;DHT22;27511;52.042;5.178;2022-12-07T17:00:49;8.30;99.90
41838;DHT22;27511;52.042;5.178;2022-12-07T17:03:20;8.20;99.90
41838;DHT22;27511;52.042;5.178;2022-12-07T17:05:48;8.30;99.90
41838;DHT22;27511;52.042;5.178;2022-12-07T17:08:20;8.20;99.90
41838;DHT22;27511;52.042;5.178;2022-12-07T17:10:49;8.20;99.90
41838;DHT22;27511;52.042;5.178;2022-12-07T17:13:20;8.30;99.90
41838;DHT22;27511;52.042;5.178;2022-12-07T17:16:08;8.40;99.90
41838;DHT22;27511;52.042;5.178;2022-12-07T17:18:36;8.20;99.90
41838;DHT22;27511;52.042;5.178;2022-12-07T17:21:07;8.10;99.90
41838;DHT22;27511;52.042;5.178;2022-12-07T17:23:37;8.20;99.90
41838;DHT22;27511;52.042;5.178;2022-12-07T17:26:18;8.10;99.90
41838;DHT22;27511;52.042;5.178;2022-12-07T17:28:44;8.20;99.90
41838;DHT22;27511;52.042;5.178;2022-12-07T17:31:14;8.30;99.90
41838;DHT22;27511;52.042;5.178;2022-12-07T17:33:40;8.30;99.90
41838;DHT22;27511;52.042;5.178;2022-12-07T17:36:17;8.20;99.90
41838;DHT22;27511;52.042;5.178;2022-12-07T17:38:44;8.20;99.90
41838;DHT22;27511;52.042;5.178;2022-12-07T17:41:21;8.10;99.90
41838;DHT22;27511;52.042;5.178;2022-12-07T17:44:08;8.10;99.90
41838;DHT22;27511;52.042;5.178;2022-12-07T17:46:41;8.20;99.90
41838;DHT22;27511;52.042;5.178;2022-12-07T17:49:13;8.30;99.90
41838;DHT22;27511;52.042;5.178;2022-12-07T17:51:45;8.30;99.90